createdAt,value
2019-03-23T00:02:02.194Z,49.70
2019-03-23T00:04:38.686Z,50.30
2019-03-23T00:07:13.209Z,47.27
2019-03-23T00:09:47.827Z,46.57
2019-03-23T00:12:22.301Z,46.67
2019-03-23T00:14:57.065Z,46.73
2019-03-23T00:17:33.075Z,44.93
2019-03-23T00:20:10.053Z,48.20
2019-03-23T00:22:44.614Z,48.27
2019-03-23T00:25:19.286Z,47.47
2019-03-23T00:27:55.364Z,45.00
2019-03-23T00:30:29.934Z,47.47
2019-03-23T00:33:04.511Z,45.20
2019-03-23T00:35:40.901Z,47.07
2019-03-23T00:38:15.464Z,44.70
2019-03-23T00:40:50.142Z,44.03
2019-03-23T00:43:24.810Z,43.10
2019-03-23T00:46:02.316Z,45.90
2019-03-23T00:48:36.965Z,46.40
2019-03-23T00:51:11.570Z,45.23
2019-03-23T00:53:47.824Z,47.73
2019-03-23T00:56:22.333Z,49.40
2019-03-23T00:58:56.845Z,47.50
2019-03-23T01:01:31.809Z,50.57
2019-03-23T01:04:06.548Z,46.30
2019-03-23T01:06:51.539Z,46.77
2019-03-23T01:09:17.851Z,45.30
2019-03-23T01:11:53.950Z,45.93
2019-03-23T01:14:28.605Z,44.30
2019-03-23T01:17:03.259Z,43.97
2019-03-23T01:19:37.962Z,47.13
2019-03-23T01:22:12.818Z,44.13
2019-03-23T01:24:47.699Z,43.27
2019-03-23T01:27:22.172Z,44.40
2019-03-23T01:29:56.753Z,46.03
2019-03-23T01:32:31.634Z,47.93
2019-03-23T01:35:09.846Z,44.30
2019-03-23T01:37:44.514Z,43.37
2019-03-23T01:40:19.345Z,42.77
2019-03-23T01:42:53.794Z,43.53
2019-03-23T01:45:28.425Z,42.80
2019-03-23T01:48:03.068Z,45.20
2019-03-23T01:50:38.076Z,44.67
2019-03-23T01:53:12.992Z,42.10
2019-03-23T01:55:47.510Z,45.67
2019-03-23T01:58:22.020Z,42.60
2019-03-23T02:00:57.993Z,42.40
2019-03-23T02:03:33.574Z,43.53
2019-03-23T02:06:09.385Z,40.93
2019-03-23T02:08:45.316Z,43.93
2019-03-23T02:11:20.202Z,41.07
2019-03-23T02:13:54.886Z,39.70
2019-03-23T02:16:29.856Z,39.87
2019-03-23T02:19:04.469Z,38.07
2019-03-23T02:21:39.259Z,42.30
2019-03-23T02:24:13.870Z,39.90
2019-03-23T02:26:48.897Z,37.77
2019-03-23T02:29:23.518Z,40.60
2019-03-23T02:31:58.082Z,40.87
2019-03-23T02:34:32.610Z,38.13
2019-03-23T02:37:07.217Z,42.50
2019-03-23T02:39:42.074Z,38.47
2019-03-23T02:42:16.657Z,42.03
2019-03-23T02:44:51.214Z,42.90
2019-03-23T02:47:26.327Z,39.10
2019-03-23T02:50:02.652Z,41.40
2019-03-23T02:52:38.101Z,41.43
2019-03-23T02:55:13.774Z,41.67
2019-03-23T02:57:48.344Z,41.83
2019-03-23T03:00:23.053Z,41.90
2019-03-23T03:02:57.589Z,39.40
2019-03-23T03:05:32.217Z,38.87
2019-03-23T03:08:08.583Z,39.73
2019-03-23T03:10:43.972Z,38.20
2019-03-23T03:13:20.038Z,39.23
2019-03-23T03:15:54.491Z,38.83
2019-03-23T03:18:29.099Z,38.50
2019-03-23T03:21:03.962Z,38.70
2019-03-23T03:23:38.698Z,38.73
2019-03-23T03:26:13.604Z,40.07
2019-03-23T03:28:48.359Z,40.23
2019-03-23T03:31:22.973Z,39.47
2019-03-23T03:33:57.612Z,40.07
2019-03-23T03:36:33.640Z,34.57
2019-03-23T03:39:12.392Z,39.83
2019-03-23T03:41:47.032Z,34.83
2019-03-23T03:44:22.255Z,38.70
2019-03-23T03:46:56.830Z,37.00
2019-03-23T03:49:31.342Z,36.60
2019-03-23T03:52:05.945Z,34.80
2019-03-23T03:54:40.656Z,38.10
2019-03-23T03:57:15.283Z,36.80
2019-03-23T03:59:50.019Z,37.73
2019-03-23T04:02:24.850Z,36.23
2019-03-23T04:04:59.482Z,34.40
2019-03-23T04:07:35.067Z,36.07
2019-03-23T04:10:10.652Z,35.83
2019-03-23T04:12:45.299Z,40.30
2019-03-23T04:15:20.340Z,39.00
2019-03-23T04:17:54.977Z,39.90
2019-03-23T04:20:29.999Z,38.20
2019-03-23T04:23:04.827Z,36.00
2019-03-23T04:25:39.744Z,39.13
2019-03-23T04:28:16.457Z,40.30
2019-03-23T04:30:51.328Z,41.40
2019-03-23T04:33:26.525Z,40.00
2019-03-23T04:36:01.039Z,38.77
2019-03-23T04:38:36.164Z,39.70
2019-03-23T04:41:12.167Z,40.80
2019-03-23T04:43:46.744Z,38.93
2019-03-23T04:46:21.792Z,38.63
2019-03-23T04:48:56.326Z,41.77
2019-03-23T04:51:31.038Z,37.60
2019-03-23T04:54:05.739Z,37.87
2019-03-23T04:56:40.307Z,38.23
2019-03-23T04:59:14.917Z,37.03
2019-03-23T05:01:49.830Z,37.37
2019-03-23T05:04:24.780Z,36.87
2019-03-23T05:06:59.616Z,35.60
2019-03-23T05:09:34.388Z,38.57
2019-03-23T05:12:09.322Z,35.33
2019-03-23T05:14:43.905Z,39.70
2019-03-23T05:17:20.252Z,45.93
2019-03-23T05:19:54.905Z,44.63
2019-03-23T05:22:29.539Z,44.00
2019-03-23T05:25:04.662Z,46.40
2019-03-23T05:27:39.295Z,53.17
2019-03-23T05:30:13.980Z,55.20
2019-03-23T05:32:48.479Z,59.23
2019-03-23T05:35:23.179Z,65.13
2019-03-23T05:37:59.336Z,66.20
2019-03-23T05:40:33.780Z,68.03
2019-03-23T05:43:08.896Z,68.43
2019-03-23T05:45:43.523Z,70.57
2019-03-23T05:48:18.345Z,69.67
2019-03-23T05:50:52.927Z,69.37
2019-03-23T05:53:29.033Z,70.40
2019-03-23T05:56:03.554Z,74.00
2019-03-23T05:58:38.407Z,74.37
2019-03-23T06:01:13.006Z,77.90
2019-03-23T06:03:47.844Z,73.97
2019-03-23T06:06:22.360Z,75.90
2019-03-23T06:08:57.107Z,75.10
2019-03-23T06:11:32.142Z,73.90
2019-03-23T06:14:06.806Z,73.13
2019-03-23T06:16:41.816Z,72.40
2019-03-23T06:19:16.599Z,76.87
2019-03-23T06:21:51.287Z,75.00
2019-03-23T06:24:26.035Z,72.97
2019-03-23T06:27:00.655Z,71.53
2019-03-23T06:29:35.390Z,69.77
2019-03-23T06:32:09.993Z,62.17
2019-03-23T06:34:44.661Z,61.53
2019-03-23T06:37:19.332Z,60.80
2019-03-23T06:39:53.918Z,58.60
2019-03-23T06:42:28.634Z,58.20
2019-03-23T06:45:05.299Z,57.93
2019-03-23T06:47:39.801Z,60.20
2019-03-23T06:50:16.100Z,63.43
2019-03-23T06:52:51.232Z,62.90
2019-03-23T06:55:26.027Z,61.40
2019-03-23T06:58:00.585Z,63.60
2019-03-23T07:00:37.011Z,62.40
2019-03-23T07:03:11.665Z,57.07
2019-03-23T07:05:46.382Z,54.30
2019-03-23T07:08:31.320Z,52.83
2019-03-23T07:10:59.642Z,50.27
2019-03-23T07:13:34.421Z,54.10
2019-03-23T07:16:09.109Z,56.87
2019-03-23T07:18:43.681Z,53.50
2019-03-23T07:21:18.350Z,55.10
2019-03-23T07:23:54.981Z,50.87
2019-03-23T07:26:31.484Z,49.80
2019-03-23T07:29:07.410Z,51.33
2019-03-23T07:31:42.343Z,47.63
2019-03-23T07:34:17.054Z,44.93
2019-03-23T07:36:51.796Z,46.93
2019-03-23T07:39:30.441Z,49.60
2019-03-23T07:42:04.518Z,48.63
2019-03-23T07:44:39.201Z,46.87
2019-03-23T07:47:13.892Z,49.27
2019-03-23T07:49:48.821Z,46.70
2019-03-23T07:52:23.473Z,45.30
2019-03-23T07:55:00.543Z,46.23
2019-03-23T07:57:35.269Z,47.87
2019-03-23T08:00:11.790Z,50.20
2019-03-23T08:02:46.310Z,49.50
2019-03-23T08:05:21.062Z,49.70
2019-03-23T08:07:55.733Z,48.40
2019-03-23T08:10:33.762Z,48.63
2019-03-23T08:13:08.672Z,46.27
2019-03-23T08:15:43.992Z,47.33
2019-03-23T08:18:18.853Z,47.87
2019-03-23T08:20:53.629Z,47.87
2019-03-23T08:23:28.487Z,50.40
2019-03-23T08:26:04.965Z,45.00
2019-03-23T08:28:39.697Z,48.20
2019-03-23T08:31:15.672Z,47.00
2019-03-23T08:33:52.213Z,48.30
2019-03-23T08:36:28.276Z,45.60
2019-03-23T08:39:03.008Z,45.60
2019-03-23T08:41:37.526Z,46.13
2019-03-23T08:44:12.157Z,47.10
2019-03-23T08:46:48.522Z,47.00
2019-03-23T08:49:23.037Z,46.50
2019-03-23T08:51:57.877Z,48.73
2019-03-23T08:54:32.668Z,48.23
2019-03-23T08:57:07.373Z,48.13
2019-03-23T08:59:43.644Z,49.47
2019-03-23T09:02:18.252Z,45.77
2019-03-23T09:04:52.786Z,46.67
2019-03-23T09:07:28.401Z,49.33
2019-03-23T09:10:04.787Z,46.37
2019-03-23T09:12:39.535Z,48.97
2019-03-23T09:15:15.636Z,48.00
2019-03-23T09:17:50.448Z,44.90
2019-03-23T09:20:25.012Z,49.33
2019-03-23T09:23:01.481Z,49.60
2019-03-23T09:25:36.271Z,48.73
2019-03-23T09:28:10.874Z,48.13
2019-03-23T09:30:45.607Z,49.37
2019-03-23T09:33:20.326Z,50.97
2019-03-23T09:35:56.765Z,50.37
2019-03-23T09:38:31.585Z,51.60
2019-03-23T09:41:06.202Z,50.47
2019-03-23T09:43:42.177Z,50.90
2019-03-23T09:46:16.904Z,49.37
2019-03-23T09:48:52.879Z,51.50
2019-03-23T09:51:29.340Z,50.53
2019-03-23T09:54:04.157Z,51.90
2019-03-23T09:56:38.878Z,53.20
2019-03-23T09:59:13.420Z,51.10
2019-03-23T10:01:49.473Z,52.80
2019-03-23T10:04:24.875Z,52.33
2019-03-23T10:06:59.591Z,51.50
2019-03-23T10:09:34.092Z,54.90
2019-03-23T10:12:09.008Z,54.23
2019-03-23T10:14:43.617Z,52.33
2019-03-23T10:17:18.677Z,52.20
2019-03-23T10:19:53.610Z,56.43
2019-03-23T10:22:28.267Z,55.70
2019-03-23T10:25:03.013Z,56.20
2019-03-23T10:27:37.810Z,54.70
2019-03-23T10:30:12.923Z,56.17
2019-03-23T10:32:47.507Z,57.13
2019-03-23T10:35:22.361Z,54.47
2019-03-23T10:37:57.010Z,50.40
2019-03-23T10:40:32.622Z,50.57
2019-03-23T10:43:07.901Z,51.10
2019-03-23T10:45:44.299Z,48.50
2019-03-23T10:48:19.366Z,52.43
2019-03-23T10:50:55.844Z,51.10
2019-03-23T10:53:30.752Z,50.83
2019-03-23T10:56:05.437Z,53.20
2019-03-23T10:58:40.419Z,50.97
2019-03-23T11:01:15.414Z,51.03
2019-03-23T11:03:50.158Z,49.47
2019-03-23T11:06:24.755Z,48.20
2019-03-23T11:08:59.436Z,47.00
2019-03-23T11:11:33.949Z,47.60
2019-03-23T11:14:11.125Z,49.90
2019-03-23T11:16:45.827Z,47.10
2019-03-23T11:19:20.657Z,48.83
2019-03-23T11:21:55.174Z,43.90
2019-03-23T11:24:29.837Z,44.37
2019-03-23T11:27:04.494Z,42.10
2019-03-23T11:29:39.209Z,40.83
2019-03-23T11:32:14.004Z,41.03
2019-03-23T11:34:48.702Z,39.47
2019-03-23T11:37:23.907Z,40.60
2019-03-23T11:39:58.588Z,37.20
2019-03-23T11:42:33.333Z,38.50
2019-03-23T11:45:08.605Z,40.03
2019-03-23T11:47:43.290Z,38.80
2019-03-23T11:50:18.131Z,40.30
2019-03-23T11:52:52.788Z,40.90
2019-03-23T11:55:27.761Z,40.43
2019-03-23T11:58:02.477Z,40.80
2019-03-23T12:00:37.129Z,40.53
2019-03-23T12:03:12.389Z,38.80
2019-03-23T12:05:47.111Z,41.17
2019-03-23T12:08:22.173Z,43.50
2019-03-23T12:11:02.800Z,39.40
2019-03-23T12:13:34.573Z,40.30
2019-03-23T12:16:09.094Z,40.57
2019-03-23T12:18:43.724Z,40.77
2019-03-23T12:21:19.273Z,40.30
2019-03-23T12:23:54.407Z,39.93
2019-03-23T12:26:29.136Z,37.73
2019-03-23T12:29:03.784Z,39.60
2019-03-23T12:31:38.329Z,38.43
2019-03-23T12:34:12.990Z,39.23
2019-03-23T12:36:47.943Z,37.47
2019-03-23T12:39:22.505Z,38.60
2019-03-23T12:41:57.279Z,39.90
2019-03-23T12:44:31.966Z,40.43
2019-03-23T12:47:06.660Z,36.30
2019-03-23T12:49:41.473Z,37.70
2019-03-23T12:52:16.210Z,35.97
2019-03-23T12:54:50.733Z,36.70
2019-03-23T12:57:25.323Z,36.70
2019-03-23T12:59:59.898Z,34.17
2019-03-23T13:02:34.951Z,36.30
2019-03-23T13:05:09.865Z,33.77
2019-03-23T13:07:45.020Z,35.73
2019-03-23T13:10:19.765Z,38.40
2019-03-23T13:12:54.389Z,36.50
2019-03-23T13:15:30.679Z,35.40
2019-03-23T13:18:05.340Z,35.50
2019-03-23T13:20:40.079Z,34.57
2019-03-23T13:23:14.707Z,30.90
2019-03-23T13:25:49.621Z,33.93
2019-03-23T13:28:24.298Z,33.00
2019-03-23T13:30:58.996Z,32.97
2019-03-23T13:33:33.495Z,31.70
2019-03-23T13:36:09.278Z,33.00
2019-03-23T13:38:43.879Z,31.53
2019-03-23T13:41:20.692Z,34.20
2019-03-23T13:43:58.579Z,33.33
2019-03-23T13:46:33.817Z,32.30
2019-03-23T13:49:16.319Z,32.40
2019-03-23T13:51:52.858Z,31.00
2019-03-23T13:54:27.495Z,30.87
2019-03-23T13:57:02.133Z,31.03
2019-03-23T13:59:36.842Z,30.83
2019-03-23T14:02:13.188Z,31.30
2019-03-23T14:04:47.766Z,31.13
2019-03-23T14:07:22.396Z,31.57
2019-03-23T14:09:57.223Z,30.40
2019-03-23T14:12:31.953Z,31.03
2019-03-23T14:15:07.199Z,32.40
2019-03-23T14:17:42.240Z,31.77
2019-03-23T14:20:17.371Z,31.97
2019-03-23T14:23:02.365Z,33.53
2019-03-23T14:25:30.247Z,30.77
2019-03-23T14:28:08.207Z,32.17
2019-03-23T14:30:44.942Z,31.37
2019-03-23T14:33:19.746Z,31.20
2019-03-23T14:35:54.271Z,32.77
2019-03-23T14:38:28.798Z,30.70
2019-03-23T14:41:03.387Z,30.60
2019-03-23T14:43:38.045Z,29.70
2019-03-23T14:46:12.873Z,27.70
2019-03-23T14:48:47.454Z,30.83
2019-03-23T14:51:22.196Z,31.20
2019-03-23T14:53:56.729Z,31.73
2019-03-23T14:56:31.973Z,32.53
2019-03-23T14:59:06.694Z,30.60
2019-03-23T15:01:42.855Z,31.53
2019-03-23T15:04:17.370Z,31.43
2019-03-23T15:06:52.170Z,31.20
2019-03-23T15:09:27.285Z,30.20
2019-03-23T15:12:01.970Z,33.27
2019-03-23T15:14:38.106Z,32.43
2019-03-23T15:17:12.569Z,32.03
2019-03-23T15:19:47.118Z,33.37
2019-03-23T15:22:22.078Z,32.23
2019-03-23T15:24:57.156Z,33.40
2019-03-23T15:27:31.795Z,32.67
2019-03-23T15:30:06.548Z,32.67
2019-03-23T15:32:41.075Z,34.87
2019-03-23T15:35:16.096Z,33.97
2019-03-23T15:37:52.865Z,33.50
2019-03-23T15:40:27.478Z,34.77
2019-03-23T15:43:02.656Z,33.90
2019-03-23T15:45:37.625Z,32.60
2019-03-23T15:48:12.362Z,34.53
2019-03-23T15:50:48.378Z,35.27
2019-03-23T15:53:23.269Z,35.70
2019-03-23T15:55:57.943Z,35.40
2019-03-23T15:58:32.518Z,35.23
2019-03-23T16:01:07.352Z,35.37
2019-03-23T16:03:43.816Z,36.53
2019-03-23T16:06:18.335Z,36.03
2019-03-23T16:08:52.957Z,36.50
2019-03-23T16:11:27.607Z,38.13
2019-03-23T16:14:02.243Z,37.10
2019-03-23T16:16:37.009Z,37.60
2019-03-23T16:19:12.014Z,38.97
2019-03-23T16:21:46.720Z,36.43
2019-03-23T16:24:21.334Z,37.80
2019-03-23T16:26:55.874Z,38.13
2019-03-23T16:29:31.005Z,37.70
2019-03-23T16:32:05.561Z,39.40
2019-03-23T16:34:40.187Z,40.23
2019-03-23T16:37:14.646Z,39.63
2019-03-23T16:39:49.516Z,41.53
2019-03-23T16:42:26.755Z,41.00
2019-03-23T16:45:01.453Z,38.70
2019-03-23T16:47:36.217Z,42.20
2019-03-23T16:50:11.679Z,41.03
2019-03-23T16:52:46.362Z,42.03
2019-03-23T16:55:21.005Z,40.23
2019-03-23T16:57:55.667Z,39.10
2019-03-23T17:00:38.603Z,40.30
2019-03-23T17:03:13.159Z,41.63
2019-03-23T17:05:47.818Z,40.80
2019-03-23T17:08:22.722Z,40.50
2019-03-23T17:10:57.644Z,41.00
2019-03-23T17:13:32.660Z,44.90
2019-03-23T17:16:07.345Z,42.97
2019-03-23T17:18:42.322Z,44.40
2019-03-23T17:21:17.349Z,43.93
2019-03-23T17:23:52.254Z,44.87
2019-03-23T17:26:26.975Z,45.30
2019-03-23T17:29:03.094Z,46.27
2019-03-23T17:31:37.934Z,78.90
2019-03-23T17:34:13.164Z,46.93
2019-03-23T17:36:49.143Z,45.20
2019-03-23T17:39:23.717Z,43.13
2019-03-23T17:41:58.348Z,44.33
2019-03-23T17:44:33.051Z,44.80
2019-03-23T17:47:07.927Z,46.90
2019-03-23T17:49:42.664Z,49.33
2019-03-23T17:52:17.286Z,47.30
2019-03-23T17:54:53.643Z,47.00
2019-03-23T17:57:28.331Z,50.77
2019-03-23T18:00:05.188Z,45.60
2019-03-23T18:02:40.285Z,44.20
2019-03-23T18:05:15.022Z,49.73
2019-03-23T18:07:49.596Z,45.30
2019-03-23T18:10:28.271Z,50.80
2019-03-23T18:13:03.430Z,48.70
2019-03-23T18:15:39.821Z,43.20
2019-03-23T18:18:14.430Z,46.63
2019-03-23T18:20:50.759Z,44.40
2019-03-23T18:23:25.323Z,40.83
2019-03-23T18:26:00.419Z,41.37
2019-03-23T18:28:35.348Z,39.53
2019-03-23T18:31:10.074Z,39.93
2019-03-23T18:33:45.117Z,36.13
2019-03-23T18:36:19.724Z,34.80
2019-03-23T18:38:54.300Z,38.07
2019-03-23T18:41:29.250Z,35.33
2019-03-23T18:44:04.028Z,35.67
2019-03-23T18:46:38.557Z,35.00
2019-03-23T18:49:13.292Z,32.10
2019-03-23T18:51:48.379Z,33.70
2019-03-23T18:54:22.979Z,31.93
2019-03-23T18:56:57.461Z,29.90
2019-03-23T18:59:32.037Z,31.90
2019-03-23T19:02:06.588Z,34.50
2019-03-23T19:04:41.297Z,32.50
2019-03-23T19:07:17.774Z,30.33
2019-03-23T19:09:52.890Z,30.63
2019-03-23T19:12:27.752Z,31.00
2019-03-23T19:15:02.319Z,31.93
2019-03-23T19:17:38.572Z,29.33
2019-03-23T19:20:13.311Z,27.83
2019-03-23T19:22:48.376Z,29.37
2019-03-23T19:25:22.945Z,26.27
2019-03-23T19:27:59.004Z,25.87
2019-03-23T19:30:33.830Z,23.97
2019-03-23T19:33:10.297Z,23.33
2019-03-23T19:35:44.839Z,25.47
2019-03-23T19:38:19.515Z,24.27
2019-03-23T19:40:54.519Z,22.37
2019-03-23T19:43:29.242Z,24.20
2019-03-23T19:46:04.087Z,25.60
2019-03-23T19:48:39.004Z,25.07
2019-03-23T19:51:14.958Z,25.97
2019-03-23T19:53:49.800Z,26.33
2019-03-23T19:56:24.433Z,27.13
2019-03-23T19:58:59.120Z,25.00
2019-03-23T20:01:34.142Z,25.00
2019-03-23T20:04:08.726Z,26.97
2019-03-23T20:06:43.741Z,26.77
2019-03-23T20:09:18.688Z,27.00
2019-03-23T20:11:53.721Z,27.70
2019-03-23T20:14:28.340Z,26.90
2019-03-23T20:17:05.004Z,27.50
2019-03-23T20:19:39.691Z,27.63
2019-03-23T20:22:14.381Z,27.30
2019-03-23T20:24:48.911Z,29.10
2019-03-23T20:27:24.317Z,25.57
2019-03-23T20:29:59.293Z,27.23
2019-03-23T20:32:34.813Z,25.97
2019-03-23T20:35:11.339Z,26.57
2019-03-23T20:37:48.844Z,28.87
2019-03-23T20:40:25.913Z,26.60
2019-03-23T20:43:01.641Z,27.00
2019-03-23T20:45:36.491Z,26.70
2019-03-23T20:48:11.245Z,25.70
2019-03-23T20:50:46.620Z,24.53
2019-03-23T20:53:22.176Z,22.90
2019-03-23T20:55:58.660Z,21.80
2019-03-23T20:58:35.922Z,22.83
2019-03-23T21:01:10.460Z,19.87
2019-03-23T21:03:44.989Z,21.97
2019-03-23T21:06:20.032Z,22.07
2019-03-23T21:08:54.979Z,20.93
2019-03-23T21:11:29.732Z,21.23
2019-03-23T21:14:07.267Z,18.90
2019-03-23T21:16:42.186Z,19.43
2019-03-23T21:19:17.160Z,21.23
2019-03-23T21:21:51.920Z,19.10
2019-03-23T21:24:26.308Z,19.57
2019-03-23T21:27:00.749Z,20.13
2019-03-23T21:29:35.299Z,20.23
2019-03-23T21:32:10.120Z,18.87
2019-03-23T21:34:46.046Z,19.43
2019-03-23T21:37:21.794Z,17.97
2019-03-23T21:39:56.619Z,18.80
2019-03-23T21:42:31.392Z,17.57
2019-03-23T21:45:07.836Z,18.53
2019-03-23T21:47:42.585Z,16.43
2019-03-23T21:50:17.865Z,15.63
2019-03-23T21:52:52.603Z,14.77
2019-03-23T21:55:28.972Z,15.77
2019-03-23T21:58:03.702Z,15.50
2019-03-23T22:00:38.629Z,14.87
2019-03-23T22:03:14.195Z,14.90
2019-03-23T22:05:48.970Z,13.83
2019-03-23T22:08:23.830Z,15.03
2019-03-23T22:10:59.957Z,15.37
2019-03-23T22:13:35.046Z,14.90
2019-03-23T22:16:09.995Z,14.90
2019-03-23T22:18:44.661Z,13.20
2019-03-23T22:21:21.067Z,12.77
2019-03-23T22:23:57.614Z,13.80
2019-03-23T22:26:32.157Z,12.50
2019-03-23T22:29:08.919Z,14.07
2019-03-23T22:31:43.571Z,15.10
2019-03-23T22:34:18.191Z,13.67
2019-03-23T22:36:53.028Z,14.67
2019-03-23T22:39:27.619Z,12.87
2019-03-23T22:42:02.432Z,14.00
2019-03-23T22:44:37.179Z,12.87
2019-03-23T22:47:12.204Z,12.10
2019-03-23T22:49:46.756Z,11.73
2019-03-23T22:52:21.702Z,12.50
2019-03-23T22:54:56.653Z,12.50
2019-03-23T22:57:31.265Z,11.43
2019-03-23T23:00:08.534Z,10.23
2019-03-23T23:02:44.929Z,11.37
2019-03-23T23:05:19.576Z,12.27
2019-03-23T23:07:54.377Z,11.23
2019-03-23T23:10:29.051Z,11.00
2019-03-23T23:13:03.985Z,10.20
2019-03-23T23:15:38.829Z,11.47
2019-03-23T23:18:13.330Z,11.57
2019-03-23T23:20:48.033Z,11.20
2019-03-23T23:23:22.656Z,11.00
2019-03-23T23:25:57.402Z,12.17
2019-03-23T23:28:32.161Z,11.50
2019-03-23T23:31:08.666Z,10.30
2019-03-23T23:33:43.300Z,11.50
2019-03-23T23:36:18.313Z,11.10
2019-03-23T23:38:53.017Z,10.77
2019-03-23T23:41:27.603Z,10.73
2019-03-23T23:44:02.143Z,10.43
2019-03-23T23:46:36.794Z,10.30
2019-03-23T23:49:11.262Z,9.60
2019-03-23T23:51:50.171Z,9.23
2019-03-23T23:54:22.160Z,9.63
2019-03-23T23:56:57.114Z,8.53
2019-03-23T23:59:31.820Z,7.90
